Time;durP1;ratioP1;P1;durP2;ratioP2;P2;SDS_P1;SDS_P2;PMS_P1;PMS_P2;Temp;Humidity;BMP_temperature;BMP_pressure;BME280_temperature;BME280_humidity;BME280_pressure;Samples;Min_cycle;Max_cycle;Signal;HPM_P1;HPM_P2
2022/12/16 00:02:16;;;;;;;89.25;37.55;;;-6.70;99.90;;;-144.05;73.23;125687.94;4997998;28;20131;-79
2022/12/16 00:04:42;;;;;;;80.75;36.28;;;-6.80;99.90;;;-144.05;73.45;125687.94;4997844;28;20193;-78
2022/12/16 00:07:08;;;;;;;74.63;35.15;;;-6.70;99.90;;;-144.05;73.66;125687.94;5018171;28;20034;-80
2022/12/16 00:09:33;;;;;;;80.00;35.15;;;-6.60;99.90;;;-144.05;74.02;125687.94;5017429;28;20045;-81
2022/12/16 00:11:59;;;;;;;89.57;34.88;;;-6.50;99.90;;;-144.05;74.21;125687.94;5000080;28;20092;-80
2022/12/16 00:14:26;;;;;;;86.00;34.65;;;-6.40;99.90;;;-144.05;74.23;125687.94;5016958;28;20034;-83
2022/12/16 00:16:52;;;;;;;87.72;37.25;;;-6.30;99.90;;;-144.05;73.45;125687.94;5016159;28;20037;-83
2022/12/16 00:19:17;;;;;;;78.97;35.15;;;-6.30;99.90;;;-144.05;73.36;125687.94;5016241;28;20040;-81
2022/12/16 00:21:43;;;;;;;81.95;35.55;;;-6.40;99.90;;;-144.05;73.10;125687.94;5016805;28;20034;-81
2022/12/16 00:24:09;;;;;;;74.45;34.72;;;-6.50;99.90;;;-144.05;73.30;125687.94;4999068;28;20026;-81
2022/12/16 00:26:35;;;;;;;73.82;33.65;;;-6.40;99.90;;;-144.05;72.77;125687.94;4998693;28;20025;-82
2022/12/16 00:29:01;;;;;;;66.20;31.42;;;-6.60;99.90;;;-144.05;72.75;125687.94;5014249;28;20034;-81
2022/12/16 00:31:26;;;;;;;79.18;32.90;;;-6.70;99.90;;;-144.05;72.47;125687.94;4998424;28;20120;-82
2022/12/16 00:33:57;;;;;;;76.35;30.60;;;-6.80;99.90;;;-144.05;72.76;125687.94;4997781;28;20552;-81
2022/12/16 00:36:26;;;;;;;73.50;29.23;;;-6.80;99.90;;;-144.05;72.71;125687.94;4997991;28;20489;-80
2022/12/16 00:38:52;;;;;;;75.47;30.98;;;-6.80;99.90;;;-144.05;73.25;125687.94;5013073;28;20041;-80
2022/12/16 00:41:18;;;;;;;72.15;31.70;;;-6.80;99.90;;;-144.05;73.09;125687.94;5015348;28;20030;-83
2022/12/16 00:43:44;;;;;;;66.88;30.13;;;-6.70;99.90;;;-144.05;72.73;125687.94;5015191;28;20041;-82
2022/12/16 00:46:09;;;;;;;68.97;31.13;;;-6.70;99.90;;;-144.05;72.58;125687.94;4997200;28;20064;-81
2022/12/16 00:48:35;;;;;;;67.88;30.60;;;-6.70;99.90;;;-144.05;72.72;125687.94;4997130;28;20068;-81
2022/12/16 00:51:01;;;;;;;65.90;29.25;;;-6.80;99.90;;;-144.05;72.56;125687.94;5014833;28;20583;-79
2022/12/16 00:53:28;;;;;;;72.07;28.60;;;-6.80;99.90;;;-144.05;72.58;125687.94;5014794;28;20057;-80
2022/12/16 00:56:13;;;;;;;69.57;29.30;;;-6.80;99.90;;;-144.05;72.88;125687.94;5015114;28;20037;-80
2022/12/16 00:58:40;;;;;;;52.05;25.20;;;-6.80;99.90;;;-144.05;72.68;125687.94;5014371;28;20542;-82
2022/12/16 01:01:07;;;;;;;59.47;28.17;;;-6.80;99.90;;;-144.05;72.59;125687.94;5014150;28;20390;-80
2022/12/16 01:03:34;;;;;;;69.05;26.92;;;-6.90;99.90;;;-144.05;72.44;125687.94;4996744;28;20060;-79
2022/12/16 01:05:59;;;;;;;64.45;27.95;;;-6.90;99.90;;;-144.05;72.30;125687.94;5014292;28;20034;-81
2022/12/16 01:08:26;;;;;;;66.15;28.48;;;-7.00;99.90;;;-144.05;71.94;125687.94;4996562;28;20509;-81
2022/12/16 01:10:56;;;;;;;73.03;29.75;;;-7.20;99.90;;;-144.05;72.40;125687.94;5014302;28;20084;-80
2022/12/16 01:13:24;;;;;;;68.22;29.02;;;-7.30;99.90;;;-144.05;72.95;125687.94;4996406;28;20383;-80
2022/12/16 01:15:51;;;;;;;68.70;27.35;;;-7.30;99.90;;;-144.05;73.04;125687.94;5012808;28;20048;-81
2022/12/16 01:18:18;;;;;;;73.25;29.80;;;-7.20;99.90;;;-144.05;72.90;125687.94;4995883;28;20117;-81
2022/12/16 01:20:44;;;;;;;71.80;30.17;;;-7.10;99.90;;;-144.05;73.01;125687.94;4995931;28;20386;-80
2022/12/16 01:23:10;;;;;;;64.45;27.58;;;-7.00;99.90;;;-144.05;73.02;125687.94;5013781;28;20133;-79
2022/12/16 01:25:36;;;;;;;73.32;29.60;;;-6.90;99.90;;;-144.05;72.98;125687.94;4995980;28;20500;-80
2022/12/16 01:28:02;;;;;;;74.82;30.67;;;-6.70;99.90;;;-144.05;72.86;125687.94;4995803;28;20474;-80
2022/12/16 01:30:28;;;;;;;77.00;30.27;;;-6.70;99.90;;;-144.05;72.71;125687.94;5013538;28;20116;-81
2022/12/16 01:32:53;;;;;;;76.40;28.92;;;-6.60;99.90;;;-144.05;72.71;125687.94;5013628;28;20057;-79
2022/12/16 01:35:19;;;;;;;67.55;29.92;;;-6.60;99.90;;;-144.05;72.53;125687.94;5013780;28;20037;-79
2022/12/16 01:37:45;;;;;;;63.90;26.85;;;-6.70;99.90;;;-144.05;72.41;125687.94;5013978;28;20041;-78
2022/12/16 01:40:24;;;;;;;66.35;28.05;;;-6.70;99.90;;;-144.05;72.35;125687.94;5014022;28;20477;-80
2022/12/16 01:42:49;;;;;;;62.15;27.08;;;-6.80;99.90;;;-144.05;72.46;125687.94;4995440;28;20120;-81
2022/12/16 01:45:29;;;;;;;60.25;26.00;;;-6.80;99.90;;;-144.05;72.67;125687.94;5012510;28;20112;-80
2022/12/16 01:48:07;;;;;;;62.20;25.20;;;-6.90;99.90;;;-144.05;72.64;125687.94;5013026;28;20044;-80
2022/12/16 01:50:34;;;;;;;59.72;27.65;;;-6.90;99.90;;;-144.05;72.60;125687.94;4995558;28;20034;-81
2022/12/16 01:53:05;;;;;;;56.95;24.80;;;-6.90;99.90;;;-144.05;73.74;125687.94;5013059;28;20035;-80
2022/12/16 01:55:42;;;;;;;70.50;25.60;;;-6.80;99.90;;;-144.05;75.27;125687.94;5013319;28;20044;-81
2022/12/16 01:58:25;;;;;;;61.95;25.95;;;-6.60;99.90;;;-144.05;74.26;125687.94;4995238;28;20038;-80
2022/12/16 02:00:51;;;;;;;58.92;25.05;;;-6.50;99.90;;;-144.05;74.08;125687.94;5013443;28;20033;-80
2022/12/16 02:03:18;;;;;;;63.05;25.20;;;-6.50;99.90;;;-144.05;73.86;125687.94;4995316;28;20034;-79
2022/12/16 02:05:48;;;;;;;55.67;24.38;;;-6.60;99.90;;;-144.05;73.38;125687.94;5012727;28;20555;-79
2022/12/16 02:08:18;;;;;;;58.80;23.67;;;-6.60;99.90;;;-144.05;73.38;125687.94;5012578;28;20125;-80
2022/12/16 02:11:00;;;;;;;59.17;24.90;;;-6.70;99.90;;;-144.05;73.29;125687.94;4994822;28;20033;-82
2022/12/16 02:13:53;;;;;;;54.42;24.17;;;-6.80;99.90;;;-144.05;73.37;125687.94;5012709;28;20061;-81
2022/12/16 02:16:24;;;;;;;57.60;24.30;;;-6.80;99.90;;;-144.05;73.09;125687.94;5012636;28;20116;-78
2022/12/16 02:19:21;;;;;;;62.00;24.85;;;-6.90;99.90;;;-144.05;73.15;125687.94;5011152;28;20045;-81
2022/12/16 02:22:01;;;;;;;56.97;25.15;;;-6.90;99.90;;;-144.05;72.79;125687.94;4994739;28;20096;-80
2022/12/16 02:25:03;;;;;;;70.70;27.63;;;-7.00;99.90;;;-144.05;72.49;125687.94;5010978;28;20037;-78
2022/12/16 02:28:40;;;;;;;55.08;25.25;;;-7.10;99.90;;;-144.05;72.55;125687.94;4994645;28;20044;-78
2022/12/16 02:31:55;;;;;;;54.55;23.42;;;-7.20;99.90;;;-144.05;72.24;125687.94;4918790;28;20077;-81
2022/12/16 02:35:09;;;;;;;59.92;24.65;;;-7.40;99.90;;;-144.05;72.31;125687.94;4994497;28;20118;-80
2022/12/16 02:38:01;;;;;;;54.92;23.77;;;-7.50;99.90;;;-144.05;72.17;125687.94;5010693;28;20096;-80
2022/12/16 02:41:02;;;;;;;60.22;25.85;;;-7.50;99.90;;;-144.05;72.20;125687.94;5012352;28;20033;-80
2022/12/16 02:44:04;;;;;;;60.17;23.77;;;-7.50;99.90;;;-144.05;72.34;125687.94;4994421;28;20394;-80
2022/12/16 02:46:58;;;;;;;53.15;24.80;;;-7.50;99.90;;;-144.05;72.11;125687.94;4994263;28;20065;-80
2022/12/16 02:49:24;;;;;;;65.38;25.35;;;-7.50;99.90;;;-144.05;72.22;125687.94;5011414;28;20121;-81
2022/12/16 02:51:51;;;;;;;61.65;24.60;;;-7.50;99.90;;;-144.05;71.89;125687.94;5010626;28;20128;-81
2022/12/16 02:54:17;;;;;;;54.05;23.42;;;-7.50;99.90;;;-144.05;71.87;125687.94;4994279;28;20037;-81
2022/12/16 02:57:45;;;;;;;67.50;27.08;;;-7.50;99.90;;;-144.05;71.65;125687.94;4993779;28;20060;-79
2022/12/16 03:00:18;;;;;;;;;;;-7.60;99.90;;;-144.05;71.30;125687.94;5012042;28;20029;-80
2022/12/16 03:03:05;;;;;;;60.45;22.63;;;-7.70;99.90;;;-144.05;71.22;125687.94;5011700;28;20329;-79
2022/12/16 03:05:49;;;;;;;56.95;23.75;;;-7.90;99.90;;;-144.05;71.41;125687.94;5011848;28;20057;-80
2022/12/16 03:08:32;;;;;;;55.17;23.95;;;-8.00;99.90;;;-144.05;71.55;125687.94;5011704;28;20104;-80
2022/12/16 03:11:07;;;;;;;56.92;24.88;;;-8.00;99.90;;;-144.05;71.65;125687.94;5010567;28;20030;-80
2022/12/16 03:13:48;;;;;;;59.03;26.13;;;-8.00;99.90;;;-144.05;71.82;125687.94;4994229;28;20034;-81
2022/12/16 03:16:20;;;;;;;60.53;25.15;;;-7.90;99.90;;;-144.05;71.89;125687.94;4994102;28;20073;-80
2022/12/16 03:19:01;;;;;;;61.00;23.55;;;-7.70;99.90;;;-144.05;72.00;125687.94;5010168;28;20373;-80
2022/12/16 03:21:38;;;;;;;60.55;25.25;;;-7.60;99.90;;;-144.05;72.14;125687.94;5011508;28;20084;-79
2022/12/16 03:24:09;;;;;;;55.60;24.70;;;-7.40;99.90;;;-144.05;72.05;125687.94;4994051;28;20037;-78
2022/12/16 03:27:19;;;;;;;62.35;25.63;;;-7.30;99.90;;;-144.05;72.04;125687.94;5011531;28;20474;-80
2022/12/16 03:30:05;;;;;;;57.35;24.63;;;-7.30;99.90;;;-144.05;71.88;125687.94;5011174;28;20029;-79
2022/12/16 03:32:58;;;;;;;67.25;24.55;;;-7.40;99.90;;;-144.05;71.75;125687.94;4993859;28;20465;-79
2022/12/16 03:35:41;;;;;;;61.08;24.02;;;-7.40;99.90;;;-144.05;71.73;125687.94;5011647;28;20022;-79
2022/12/16 03:38:13;;;;;;;57.42;27.20;;;-7.50;99.90;;;-144.05;71.72;125687.94;5015347;28;20485;-80
2022/12/16 03:40:43;;;;;;;55.45;25.27;;;-7.60;99.90;;;-144.05;71.89;125687.94;5000160;28;20030;-79
2022/12/16 03:43:16;;;;;;;59.05;24.52;;;-7.60;99.90;;;-144.05;71.72;125687.94;4994784;28;20026;-81
2022/12/16 03:45:45;;;;;;;66.10;26.52;;;-7.60;99.90;;;-144.05;71.55;125687.94;4997472;28;20523;-80
2022/12/16 03:48:13;;;;;;;55.90;25.58;;;-7.60;99.90;;;-144.05;71.64;125687.94;5013659;28;20038;-80
2022/12/16 03:50:39;;;;;;;65.35;26.00;;;-7.60;99.90;;;-144.05;71.48;125687.94;4995540;28;20092;-80
2022/12/16 03:53:07;;;;;;;63.92;26.55;;;-7.70;99.90;;;-144.05;71.35;125687.94;5011384;28;20485;-81
2022/12/16 03:55:33;;;;;;;54.55;24.25;;;-7.70;99.90;;;-144.05;71.60;125687.94;4993822;28;20076;-80
2022/12/16 03:57:59;;;;;;;53.20;24.27;;;-7.70;99.90;;;-144.05;71.57;125687.94;5009876;28;20038;-79
2022/12/16 04:00:25;;;;;;;58.75;24.33;;;-7.60;99.90;;;-144.05;71.41;125687.94;5010949;28;20057;-77
2022/12/16 04:02:51;;;;;;;46.50;22.63;;;-7.50;99.90;;;-144.05;71.50;125687.94;4993452;28;20374;-79
2022/12/16 04:05:18;;;;;;;55.67;22.73;;;-7.50;99.90;;;-144.05;71.62;125687.94;4993160;28;20033;-80
2022/12/16 04:07:44;;;;;;;56.78;25.08;;;-7.40;99.90;;;-144.05;71.72;125687.94;5011323;28;20504;-79
2022/12/16 04:10:11;;;;;;;64.82;22.85;;;-7.40;99.90;;;-144.05;71.48;125687.94;5014657;28;20025;-80
